sensor_id;sensor_type;location;lat;lon;timestamp;pressure;altitude;pressure_sealevel;temperature;humidity
58771;BME280;44539;42.962;1.596;2023-01-19T07:24:45;96673.22;;;2.10;96.31
58771;BME280;44539;42.962;1.596;2023-01-19T07:27:10;96669.78;;;2.10;95.55
58771;BME280;44539;42.962;1.596;2023-01-19T07:29:36;96661.13;;;2.19;95.72
58771;BME280;44539;42.962;1.596;2023-01-19T07:32:02;96664.84;;;2.26;91.15
58771;BME280;44539;42.962;1.596;2023-01-19T07:34:28;96664.72;;;2.28;90.15
58771;BME280;44539;42.962;1.596;2023-01-19T07:36:54;96673.25;;;2.30;90.25
58771;BME280;44539;42.962;1.596;2023-01-19T07:39:20;96671.63;;;2.29;90.12
58771;BME280;44539;42.962;1.596;2023-01-19T07:41:47;96682.22;;;2.37;88.83
58771;BME280;44539;42.962;1.596;2023-01-19T07:44:12;96677.31;;;2.43;88.45
58771;BME280;44539;42.962;1.596;2023-01-19T07:46:38;96679.75;;;2.45;88.98
58771;BME280;44539;42.962;1.596;2023-01-19T07:49:04;96686.56;;;2.48;87.51
58771;BME280;44539;42.962;1.596;2023-01-19T07:51:29;96678.69;;;2.48;86.79
58771;BME280;44539;42.962;1.596;2023-01-19T07:53:55;96690.53;;;2.52;87.74
58771;BME280;44539;42.962;1.596;2023-01-19T07:56:20;96688.75;;;2.52;87.99
58771;BME280;44539;42.962;1.596;2023-01-19T07:58:47;96680.47;;;2.57;86.97
58771;BME280;44539;42.962;1.596;2023-01-19T08:01:14;96685.97;;;2.54;89.42
58771;BME280;44539;42.962;1.596;2023-01-19T08:03:39;96687.53;;;2.56;87.92
58771;BME280;44539;42.962;1.596;2023-01-19T08:06:05;96683.78;;;2.59;87.68
58771;BME280;44539;42.962;1.596;2023-01-19T08:08:32;96686.00;;;2.63;85.65
58771;BME280;44539;42.962;1.596;2023-01-19T08:10:58;96689.72;;;2.71;86.73
58771;BME280;44539;42.962;1.596;2023-01-19T08:13:25;96684.91;;;2.76;84.60
58771;BME280;44539;42.962;1.596;2023-01-19T08:15:52;96693.47;;;2.78;83.98
58771;BME280;44539;42.962;1.596;2023-01-19T08:18:18;96696.78;;;2.80;83.58
58771;BME280;44539;42.962;1.596;2023-01-19T08:20:44;96699.13;;;2.83;84.71
58771;BME280;44539;42.962;1.596;2023-01-19T08:23:10;96695.38;;;2.85;86.12
58771;BME280;44539;42.962;1.596;2023-01-19T08:25:41;96700.50;;;2.87;83.70
58771;BME280;44539;42.962;1.596;2023-01-19T08:28:09;96698.28;;;2.92;86.49
58771;BME280;44539;42.962;1.596;2023-01-19T08:30:35;96705.31;;;2.92;88.11
58771;BME280;44539;42.962;1.596;2023-01-19T08:33:00;96705.63;;;2.89;84.73
58771;BME280;44539;42.962;1.596;2023-01-19T08:35:45;96707.00;;;2.93;85.31
58771;BME280;44539;42.962;1.596;2023-01-19T08:38:11;96705.88;;;2.95;84.08
58771;BME280;44539;42.962;1.596;2023-01-19T08:40:39;96712.50;;;2.99;85.75
58771;BME280;44539;42.962;1.596;2023-01-19T08:43:07;96719.13;;;2.94;83.31
58771;BME280;44539;42.962;1.596;2023-01-19T08:45:34;96720.38;;;2.99;83.16
58771;BME280;44539;42.962;1.596;2023-01-19T08:48:00;96723.00;;;2.99;86.46
58771;BME280;44539;42.962;1.596;2023-01-19T08:50:29;96717.75;;;2.99;83.52
58771;BME280;44539;42.962;1.596;2023-01-19T08:53:00;96712.91;;;3.04;84.76
58771;BME280;44539;42.962;1.596;2023-01-19T08:55:27;96720.09;;;3.02;89.20
58771;BME280;44539;42.962;1.596;2023-01-19T08:57:54;96718.97;;;3.05;86.27
58771;BME280;44539;42.962;1.596;2023-01-19T09:00:21;96718.72;;;3.08;84.17
58771;BME280;44539;42.962;1.596;2023-01-19T09:02:47;96717.03;;;3.07;84.26
58771;BME280;44539;42.962;1.596;2023-01-19T09:05:13;96720.91;;;3.13;85.61
58771;BME280;44539;42.962;1.596;2023-01-19T09:07:38;96720.22;;;3.11;84.11
58771;BME280;44539;42.962;1.596;2023-01-19T09:10:04;96722.16;;;3.18;84.19
58771;BME280;44539;42.962;1.596;2023-01-19T09:12:31;96721.31;;;3.18;85.42
58771;BME280;44539;42.962;1.596;2023-01-19T09:14:56;96721.19;;;3.19;84.78
58771;BME280;44539;42.962;1.596;2023-01-19T09:17:22;96721.63;;;3.24;82.56
58771;BME280;44539;42.962;1.596;2023-01-19T09:19:47;96727.94;;;3.22;84.56
58771;BME280;44539;42.962;1.596;2023-01-19T09:22:12;96719.69;;;3.26;84.76
58771;BME280;44539;42.962;1.596;2023-01-19T09:24:38;96726.84;;;3.34;82.01
58771;BME280;44539;42.962;1.596;2023-01-19T09:27:03;96734.31;;;3.29;84.94
58771;BME280;44539;42.962;1.596;2023-01-19T09:29:29;96730.84;;;3.28;84.60
58771;BME280;44539;42.962;1.596;2023-01-19T09:31:54;96726.16;;;3.32;83.03
58771;BME280;44539;42.962;1.596;2023-01-19T09:34:22;96722.28;;;3.36;87.35
58771;BME280;44539;42.962;1.596;2023-01-19T09:36:50;96723.78;;;3.39;88.05
58771;BME280;44539;42.962;1.596;2023-01-19T09:39:15;96720.22;;;3.40;86.74
58771;BME280;44539;42.962;1.596;2023-01-19T09:41:45;96720.72;;;3.43;89.58
58771;BME280;44539;42.962;1.596;2023-01-19T09:44:19;96713.97;;;3.51;90.36
58771;BME280;44539;42.962;1.596;2023-01-19T09:46:50;96720.03;;;3.51;86.19
58771;BME280;44539;42.962;1.596;2023-01-19T09:49:20;96719.59;;;3.56;86.57
58771;BME280;44539;42.962;1.596;2023-01-19T09:51:49;96725.03;;;3.54;88.23
58771;BME280;44539;42.962;1.596;2023-01-19T09:57:10;96728.28;;;3.66;82.87
58771;BME280;44539;42.962;1.596;2023-01-19T09:59:36;96724.13;;;3.73;82.73
58771;BME280;44539;42.962;1.596;2023-01-19T10:02:13;96715.56;;;3.71;81.50
58771;BME280;44539;42.962;1.596;2023-01-19T10:04:55;96724.81;;;3.75;80.21
58771;BME280;44539;42.962;1.596;2023-01-19T10:07:45;96709.25;;;3.92;74.64
58771;BME280;44539;42.962;1.596;2023-01-19T10:10:26;96700.44;;;3.93;72.86
58771;BME280;44539;42.962;1.596;2023-01-19T10:13:09;96703.44;;;3.98;74.45
58771;BME280;44539;42.962;1.596;2023-01-19T10:15:55;96695.94;;;4.03;72.46
58771;BME280;44539;42.962;1.596;2023-01-19T10:18:26;96698.53;;;4.13;74.00
58771;BME280;44539;42.962;1.596;2023-01-19T10:21:01;96690.50;;;4.14;76.20
58771;BME280;44539;42.962;1.596;2023-01-19T10:23:48;96692.69;;;4.19;76.69
58771;BME280;44539;42.962;1.596;2023-01-19T10:26:19;96695.69;;;4.24;74.93
58771;BME280;44539;42.962;1.596;2023-01-19T10:28:48;96693.75;;;4.26;74.07
58771;BME280;44539;42.962;1.596;2023-01-19T10:31:17;96687.22;;;4.30;76.52
58771;BME280;44539;42.962;1.596;2023-01-19T10:33:45;96693.59;;;4.27;75.25
58771;BME280;44539;42.962;1.596;2023-01-19T10:36:27;96689.72;;;4.32;71.90
58771;BME280;44539;42.962;1.596;2023-01-19T10:38:53;96687.31;;;4.38;77.72
58771;BME280;44539;42.962;1.596;2023-01-19T10:41:41;96685.38;;;4.40;75.36
58771;BME280;44539;42.962;1.596;2023-01-19T10:44:08;96683.41;;;4.42;71.64
58771;BME280;44539;42.962;1.596;2023-01-19T10:46:42;96679.06;;;4.51;73.89
58771;BME280;44539;42.962;1.596;2023-01-19T10:49:35;96672.41;;;4.57;71.84
58771;BME280;44539;42.962;1.596;2023-01-19T10:52:01;96661.25;;;4.63;73.06
58771;BME280;44539;42.962;1.596;2023-01-19T10:54:29;96662.19;;;4.72;72.81
58771;BME280;44539;42.962;1.596;2023-01-19T10:57:03;96647.56;;;4.77;74.90
58771;BME280;44539;42.962;1.596;2023-01-19T10:59:36;96650.88;;;4.79;71.61
58771;BME280;44539;42.962;1.596;2023-01-19T11:02:30;96642.53;;;4.84;73.91
58771;BME280;44539;42.962;1.596;2023-01-19T11:05:19;96654.06;;;4.83;69.71
58771;BME280;44539;42.962;1.596;2023-01-19T11:07:43;96637.13;;;4.85;68.35
58771;BME280;44539;42.962;1.596;2023-01-19T11:15:45;96624.84;;;4.94;64.42
58771;BME280;44539;42.962;1.596;2023-01-19T11:18:35;96600.25;;;5.03;64.91
58771;BME280;44539;42.962;1.596;2023-01-19T11:21:05;96598.97;;;5.07;64.22
58771;BME280;44539;42.962;1.596;2023-01-19T11:23:34;96593.13;;;5.22;64.70
58771;BME280;44539;42.962;1.596;2023-01-19T11:26:06;96589.94;;;5.36;66.48
58771;BME280;44539;42.962;1.596;2023-01-19T11:33:40;96571.78;;;5.67;66.72
58771;BME280;44539;42.962;1.596;2023-01-19T11:36:18;96560.63;;;5.73;67.06
58771;BME280;44539;42.962;1.596;2023-01-19T11:38:56;96556.19;;;5.74;62.22
58771;BME280;44539;42.962;1.596;2023-01-19T11:41:25;96554.34;;;5.66;62.18
58771;BME280;44539;42.962;1.596;2023-01-19T11:43:54;96542.13;;;5.65;62.15
58771;BME280;44539;42.962;1.596;2023-01-19T11:46:23;96536.69;;;5.59;60.97
58771;BME280;44539;42.962;1.596;2023-01-19T11:48:55;96526.00;;;5.60;61.71
58771;BME280;44539;42.962;1.596;2023-01-19T11:51:29;96518.09;;;5.60;62.44
58771;BME280;44539;42.962;1.596;2023-01-19T11:54:00;96515.00;;;5.73;64.28
58771;BME280;44539;42.962;1.596;2023-01-19T11:56:27;96505.13;;;5.75;62.58
58771;BME280;44539;42.962;1.596;2023-01-19T11:58:53;96494.91;;;5.80;63.98
58771;BME280;44539;42.962;1.596;2023-01-19T12:01:23;96492.97;;;5.90;61.89
58771;BME280;44539;42.962;1.596;2023-01-19T12:06:32;96472.94;;;5.98;60.14
58771;BME280;44539;42.962;1.596;2023-01-19T12:09:00;96459.94;;;6.12;60.82
58771;BME280;44539;42.962;1.596;2023-01-19T12:11:33;96455.13;;;6.24;60.71
58771;BME280;44539;42.962;1.596;2023-01-19T12:14:00;96443.25;;;6.45;60.16
58771;BME280;44539;42.962;1.596;2023-01-19T12:16:31;96444.38;;;6.50;58.00
58771;BME280;44539;42.962;1.596;2023-01-19T12:19:05;96438.59;;;6.63;58.57
58771;BME280;44539;42.962;1.596;2023-01-19T12:21:35;96436.97;;;6.70;57.13
58771;BME280;44539;42.962;1.596;2023-01-19T12:26:35;96431.34;;;6.65;56.54
58771;BME280;44539;42.962;1.596;2023-01-19T12:29:26;96417.19;;;6.58;56.76
58771;BME280;44539;42.962;1.596;2023-01-19T12:34:42;96405.59;;;6.67;57.71
58771;BME280;44539;42.962;1.596;2023-01-19T12:37:30;96401.22;;;6.43;56.18
58771;BME280;44539;42.962;1.596;2023-01-19T12:40:00;96392.78;;;6.48;58.85
58771;BME280;44539;42.962;1.596;2023-01-19T12:42:27;96391.16;;;6.47;58.17
58771;BME280;44539;42.962;1.596;2023-01-19T12:47:29;96375.94;;;6.65;58.08
58771;BME280;44539;42.962;1.596;2023-01-19T12:49:56;96372.16;;;6.60;56.71
58771;BME280;44539;42.962;1.596;2023-01-19T13:02:54;96353.69;;;6.99;56.74
58771;BME280;44539;42.962;1.596;2023-01-19T13:13:41;96339.94;;;6.81;60.46
58771;BME280;44539;42.962;1.596;2023-01-19T13:19:28;96329.75;;;6.69;59.00
58771;BME280;44539;42.962;1.596;2023-01-19T13:24:00;96319.03;;;6.71;61.16
58771;BME280;44539;42.962;1.596;2023-01-19T13:26:32;96303.88;;;6.65;60.10
58771;BME280;44539;42.962;1.596;2023-01-19T13:29:07;96306.19;;;6.68;61.11
58771;BME280;44539;42.962;1.596;2023-01-19T13:31:39;96294.38;;;6.47;62.50
58771;BME280;44539;42.962;1.596;2023-01-19T13:34:12;96292.00;;;6.61;64.25
58771;BME280;44539;42.962;1.596;2023-01-19T13:36:43;96290.94;;;6.39;61.74
58771;BME280;44539;42.962;1.596;2023-01-19T13:39:15;96275.94;;;6.39;63.56
58771;BME280;44539;42.962;1.596;2023-01-19T13:41:42;96281.38;;;6.38;63.67
58771;BME280;44539;42.962;1.596;2023-01-19T13:44:29;96272.16;;;6.33;62.59
58771;BME280;44539;42.962;1.596;2023-01-19T13:46:58;96270.53;;;6.32;63.40
58771;BME280;44539;42.962;1.596;2023-01-19T13:49:38;96261.59;;;6.33;65.95
58771;BME280;44539;42.962;1.596;2023-01-19T13:52:21;96258.47;;;6.38;65.48
58771;BME280;44539;42.962;1.596;2023-01-19T13:54:49;96247.09;;;6.38;66.93
58771;BME280;44539;42.962;1.596;2023-01-19T13:57:21;96240.84;;;6.39;64.61
58771;BME280;44539;42.962;1.596;2023-01-19T14:05:31;96221.91;;;6.66;67.90
58771;BME280;44539;42.962;1.596;2023-01-19T14:10:25;96207.97;;;6.49;65.34
58771;BME280;44539;42.962;1.596;2023-01-19T14:13:24;96201.81;;;6.57;69.09
58771;BME280;44539;42.962;1.596;2023-01-19T14:15:52;96202.13;;;6.62;68.88
58771;BME280;44539;42.962;1.596;2023-01-19T14:26:03;96178.63;;;6.75;67.10
58771;BME280;44539;42.962;1.596;2023-01-19T14:28:40;96172.88;;;6.49;67.47
58771;BME280;44539;42.962;1.596;2023-01-19T14:31:19;96165.81;;;6.72;69.48
58771;BME280;44539;42.962;1.596;2023-01-19T14:33:48;96155.34;;;6.79;68.49
58771;BME280;44539;42.962;1.596;2023-01-19T14:38:53;96149.09;;;6.26;69.46
58771;BME280;44539;42.962;1.596;2023-01-19T14:41:43;96138.22;;;6.21;70.66
58771;BME280;44539;42.962;1.596;2023-01-19T14:46:57;96125.06;;;6.44;72.28
58771;BME280;44539;42.962;1.596;2023-01-19T14:49:29;96115.72;;;6.64;70.86
58771;BME280;44539;42.962;1.596;2023-01-19T14:51:55;96112.44;;;6.62;71.20
58771;BME280;44539;42.962;1.596;2023-01-19T14:54:37;96114.72;;;6.42;71.86
58771;BME280;44539;42.962;1.596;2023-01-19T14:57:04;96103.28;;;6.19;72.40
58771;BME280;44539;42.962;1.596;2023-01-19T14:59:30;96094.34;;;5.97;75.98
58771;BME280;44539;42.962;1.596;2023-01-19T15:01:56;96089.09;;;5.88;74.66
58771;BME280;44539;42.962;1.596;2023-01-19T15:04:24;96071.66;;;5.87;76.51
58771;BME280;44539;42.962;1.596;2023-01-19T15:06:50;96058.38;;;5.72;77.83
58771;BME280;44539;42.962;1.596;2023-01-19T15:09:15;96049.66;;;5.72;78.79
58771;BME280;44539;42.962;1.596;2023-01-19T15:11:42;96053.78;;;5.66;79.20
58771;BME280;44539;42.962;1.596;2023-01-19T15:14:11;96040.78;;;5.65;79.32
58771;BME280;44539;42.962;1.596;2023-01-19T15:16:38;96032.22;;;5.63;81.30
58771;BME280;44539;42.962;1.596;2023-01-19T15:19:03;96026.19;;;5.54;80.56
58771;BME280;44539;42.962;1.596;2023-01-19T15:21:28;96014.59;;;5.32;80.64
58771;BME280;44539;42.962;1.596;2023-01-19T15:23:54;96003.38;;;5.38;82.15
58771;BME280;44539;42.962;1.596;2023-01-19T15:26:22;95999.09;;;5.37;81.55
58771;BME280;44539;42.962;1.596;2023-01-19T15:28:48;95998.25;;;5.45;81.19
58771;BME280;44539;42.962;1.596;2023-01-19T15:31:16;95989.69;;;5.43;81.17
58771;BME280;44539;42.962;1.596;2023-01-19T15:33:42;95976.38;;;5.44;81.87
58771;BME280;44539;42.962;1.596;2023-01-19T15:36:14;95960.16;;;5.24;82.12
58771;BME280;44539;42.962;1.596;2023-01-19T15:38:41;95946.03;;;5.17;83.39
58771;BME280;44539;42.962;1.596;2023-01-19T15:43:47;95932.41;;;5.05;83.58
58771;BME280;44539;42.962;1.596;2023-01-19T15:46:13;95929.13;;;5.03;84.71
58771;BME280;44539;42.962;1.596;2023-01-19T15:48:41;95919.63;;;5.02;84.62
58771;BME280;44539;42.962;1.596;2023-01-19T15:51:14;95914.19;;;5.04;85.56
58771;BME280;44539;42.962;1.596;2023-01-19T15:53:40;95912.75;;;4.93;84.19
58771;BME280;44539;42.962;1.596;2023-01-19T15:56:15;95900.06;;;4.97;86.80
58771;BME280;44539;42.962;1.596;2023-01-19T15:58:42;95897.94;;;4.92;88.01
58771;BME280;44539;42.962;1.596;2023-01-19T16:01:13;95887.81;;;4.81;86.84
58771;BME280;44539;42.962;1.596;2023-01-19T16:03:39;95885.03;;;4.74;87.33
58771;BME280;44539;42.962;1.596;2023-01-19T16:06:05;95880.59;;;4.75;86.67
58771;BME280;44539;42.962;1.596;2023-01-19T16:08:30;95879.78;;;4.74;86.60
58771;BME280;44539;42.962;1.596;2023-01-19T16:10:56;95864.66;;;4.76;88.74
58771;BME280;44539;42.962;1.596;2023-01-19T16:13:21;95865.66;;;4.67;89.21
58771;BME280;44539;42.962;1.596;2023-01-19T16:15:47;95864.84;;;4.66;91.07
58771;BME280;44539;42.962;1.596;2023-01-19T16:18:12;95856.63;;;4.69;91.59
58771;BME280;44539;42.962;1.596;2023-01-19T16:20:38;95843.47;;;4.69;90.61
58771;BME280;44539;42.962;1.596;2023-01-19T16:23:03;95836.84;;;4.74;92.07
58771;BME280;44539;42.962;1.596;2023-01-19T16:25:29;95831.78;;;4.72;92.05
58771;BME280;44539;42.962;1.596;2023-01-19T16:27:56;95830.47;;;4.68;92.18
58771;BME280;44539;42.962;1.596;2023-01-19T16:30:22;95827.06;;;4.59;90.14
58771;BME280;44539;42.962;1.596;2023-01-19T16:32:47;95824.25;;;4.61;92.63
58771;BME280;44539;42.962;1.596;2023-01-19T16:35:13;95810.94;;;4.62;92.66
58771;BME280;44539;42.962;1.596;2023-01-19T16:37:40;95812.91;;;4.60;94.84
58771;BME280;44539;42.962;1.596;2023-01-19T16:40:07;95798.78;;;4.61;92.18
58771;BME280;44539;42.962;1.596;2023-01-19T16:42:32;95799.25;;;4.65;90.56
58771;BME280;44539;42.962;1.596;2023-01-19T16:44:58;95782.00;;;4.62;95.85
58771;BME280;44539;42.962;1.596;2023-01-19T16:47:23;95769.53;;;4.56;95.89
58771;BME280;44539;42.962;1.596;2023-01-19T16:49:49;95761.84;;;4.55;96.87
58771;BME280;44539;42.962;1.596;2023-01-19T16:52:14;95757.56;;;4.54;98.60
58771;BME280;44539;42.962;1.596;2023-01-19T16:54:41;95735.59;;;4.46;100.00
58771;BME280;44539;42.962;1.596;2023-01-19T16:57:07;95726.28;;;4.36;100.00
58771;BME280;44539;42.962;1.596;2023-01-19T16:59:32;95718.56;;;4.34;100.00
58771;BME280;44539;42.962;1.596;2023-01-19T17:01:58;95710.19;;;4.30;100.00
58771;BME280;44539;42.962;1.596;2023-01-19T17:04:23;95694.97;;;4.18;100.00
58771;BME280;44539;42.962;1.596;2023-01-19T17:06:49;95691.03;;;4.14;100.00
58771;BME280;44539;42.962;1.596;2023-01-19T17:09:14;95671.84;;;4.13;100.00
58771;BME280;44539;42.962;1.596;2023-01-19T17:11:40;95670.91;;;4.06;100.00
58771;BME280;44539;42.962;1.596;2023-01-19T17:14:16;95665.00;;;4.04;100.00
58771;BME280;44539;42.962;1.596;2023-01-19T17:16:44;95668.28;;;4.06;100.00
58771;BME280;44539;42.962;1.596;2023-01-19T17:19:16;95646.50;;;4.20;100.00
58771;BME280;44539;42.962;1.596;2023-01-19T17:21:46;95651.38;;;4.00;100.00
58771;BME280;44539;42.962;1.596;2023-01-19T17:24:12;95637.44;;;4.00;100.00
58771;BME280;44539;42.962;1.596;2023-01-19T17:26:38;95636.28;;;3.94;100.00
58771;BME280;44539;42.962;1.596;2023-01-19T17:29:05;95633.84;;;3.93;100.00
58771;BME280;44539;42.962;1.596;2023-01-19T17:31:32;95620.91;;;3.83;100.00
58771;BME280;44539;42.962;1.596;2023-01-19T17:33:58;95616.47;;;3.83;100.00
58771;BME280;44539;42.962;1.596;2023-01-19T17:36:24;95607.69;;;3.68;100.00
58771;BME280;44539;42.962;1.596;2023-01-19T17:38:53;95617.69;;;3.64;100.00
58771;BME280;44539;42.962;1.596;2023-01-19T17:41:22;95614.41;;;3.71;100.00
58771;BME280;44539;42.962;1.596;2023-01-19T17:43:49;95623.56;;;3.75;100.00
58771;BME280;44539;42.962;1.596;2023-01-19T17:46:16;95620.00;;;3.67;100.00
58771;BME280;44539;42.962;1.596;2023-01-19T17:48:41;95609.00;;;3.64;100.00
58771;BME280;44539;42.962;1.596;2023-01-19T17:51:11;95607.69;;;3.68;100.00
